Time;durP1;ratioP1;P1;durP2;ratioP2;P2;SDS_P1;SDS_P2;PMS_P1;PMS_P2;Temp;Humidity;BMP_temperature;BMP_pressure;BME280_temperature;BME280_humidity;BME280_pressure;Samples;Min_cycle;Max_cycle;Signal;HPM_P1;HPM_P2
2021/06/15 00:00:18;;;;;;;5.47;1.10;;;;;;;16.02;54.10;101750.28;4937003;29;20050;-47
2021/06/15 00:02:46;;;;;;;6.78;1.00;;;;;;;16.04;54.01;101725.59;4937738;29;20091;-47
2021/06/15 00:05:14;;;;;;;5.57;1.75;;;;;;;16.08;53.88;101715.31;4939183;29;20506;-45
2021/06/15 00:07:44;;;;;;;8.15;1.73;;;;;;;16.05;53.72;101700.06;4937302;29;20106;-49
2021/06/15 00:10:23;;;;;;;4.65;1.38;;;;;;;15.92;54.25;101698.53;4939511;29;20445;-46
2021/06/15 00:12:51;;;;;;;7.85;1.50;;;;;;;15.82;54.53;101713.03;4942970;29;20054;-46
2021/06/15 00:15:19;;;;;;;2.85;1.30;;;;;;;15.61;55.08;101723.59;4941427;29;20058;-49
2021/06/15 00:17:48;;;;;;;4.18;1.70;;;;;;;15.49;55.32;101732.81;4937361;29;20044;-48
2021/06/15 00:20:15;;;;;;;3.65;1.05;;;;;;;15.48;55.65;101741.56;4946384;29;20493;-46
2021/06/15 00:22:43;;;;;;;2.35;1.23;;;;;;;15.50;55.41;101744.81;4945668;29;20035;-45
2021/06/15 00:25:11;;;;;;;10.88;2.40;;;;;;;15.48;55.63;101749.94;4937718;29;20079;-47
2021/06/15 00:27:39;;;;;;;6.60;1.58;;;;;;;15.49;55.72;101735.59;4937660;29;20134;-49
2021/06/15 00:30:09;;;;;;;6.40;1.23;;;;;;;15.52;55.68;101745.25;4937087;29;20043;-45
2021/06/15 00:32:36;;;;;;;6.95;1.88;;;;;;;15.42;55.95;101740.16;4936635;29;20055;-45
2021/06/15 00:35:03;;;;;;;5.03;1.52;;;;;;;15.39;55.97;101719.34;4944569;29;20035;-44
2021/06/15 00:37:30;;;;;;;6.65;2.08;;;;;;;15.51;56.03;101722.13;4943781;29;20101;-45
2021/06/15 00:39:57;;;;;;;6.05;1.85;;;;;;;15.34;56.33;101724.34;4917662;29;20142;-45
2021/06/15 00:42:24;;;;;;;8.63;2.20;;;;;;;15.19;56.70;101723.13;4946968;29;20134;-49
2021/06/15 00:44:53;;;;;;;6.05;1.70;;;;;;;15.11;56.86;101715.72;4932697;29;20060;-45
2021/06/15 00:47:22;;;;;;;7.60;1.55;;;;;;;15.01;57.08;101714.19;4935870;29;20047;-45
2021/06/15 00:49:53;;;;;;;5.65;1.40;;;;;;;14.95;57.55;101709.22;4936782;29;20055;-44
2021/06/15 00:52:20;;;;;;;4.72;2.08;;;;;;;14.89;57.36;101711.44;4936718;29;20085;-46
2021/06/15 00:54:49;;;;;;;5.15;1.33;;;;;;;14.89;57.58;101708.66;4936923;29;20047;-46
2021/06/15 00:57:17;;;;;;;2.88;1.65;;;;;;;14.84;57.88;101702.50;4935840;29;20086;-47
2021/06/15 00:59:45;;;;;;;4.78;1.67;;;;;;;14.77;57.69;101705.91;4936783;29;20126;-46
2021/06/15 01:02:11;;;;;;;3.38;1.42;;;;;;;14.73;57.88;101713.31;4936059;29;20071;-44
2021/06/15 01:04:39;;;;;;;9.73;1.58;;;;;;;14.72;58.21;101717.25;4940583;29;20075;-48
2021/06/15 01:07:26;;;;;;;5.85;1.52;;;;;;;14.73;58.66;101716.09;4936642;29;20075;-45
2021/06/15 01:10:09;;;;;;;6.38;1.77;;;;;;;14.66;58.40;101721.47;4940158;29;20138;-47
2021/06/15 01:12:51;;;;;;;5.25;1.58;;;;;;;14.58;58.67;101727.97;4937489;29;20075;-46
2021/06/15 01:15:24;;;;;;;5.00;1.58;;;;;;;14.56;58.92;101713.56;4936107;29;20071;-45
2021/06/15 01:18:24;;;;;;;7.03;1.70;;;;;;;14.54;59.32;101713.09;4935969;29;20082;-46
2021/06/15 01:20:59;;;;;;;4.45;1.10;;;;;;;14.67;58.93;101713.94;4890072;29;20075;-46
2021/06/15 01:23:40;;;;;;;4.22;1.17;;;;;;;14.60;58.91;101722.84;4944765;29;20130;-46
2021/06/15 01:26:10;;;;;;;3.92;1.52;;;;;;;14.53;59.15;101725.41;4933836;29;20058;-45
2021/06/15 01:29:00;;;;;;;3.67;1.92;;;;;;;14.48;59.42;101726.44;4937995;29;20050;-45
2021/06/15 01:31:36;;;;;;;4.63;1.30;;;;;;;14.46;59.44;101731.56;4932392;29;20048;-45
2021/06/15 01:34:09;;;;;;;7.43;1.55;;;;;;;14.45;59.54;101726.34;4953712;29;20051;-46
2021/06/15 01:36:41;;;;;;;4.75;1.92;;;;;;;14.48;59.50;101739.59;4943766;29;20122;-46
2021/06/15 01:39:15;;;;;;;5.00;1.93;;;;;;;14.42;59.61;101736.22;4936074;29;20067;-44
2021/06/15 01:41:49;;;;;;;3.75;1.67;;;;;;;14.42;59.78;101727.84;4943050;29;20656;-47
2021/06/15 01:44:17;;;;;;;7.57;1.70;;;;;;;14.42;59.66;101732.59;4942669;29;20052;-45
2021/06/15 01:47:07;;;;;;;6.20;1.63;;;;;;;14.34;59.99;101744.66;4935908;29;20485;-45
2021/06/15 01:49:41;;;;;;;9.45;3.05;;;;;;;14.34;60.20;101737.13;4941534;29;20048;-45
2021/06/15 01:52:10;;;;;;;7.22;2.25;;;;;;;14.36;59.81;101736.78;4950571;29;20498;-45
2021/06/15 01:54:38;;;;;;;3.75;1.50;;;;;;;14.41;59.54;101736.53;4935317;29;20043;-45
2021/06/15 01:57:08;;;;;;;4.22;1.50;;;;;;;14.35;59.72;101746.31;4937557;29;20044;-46
2021/06/15 01:59:38;;;;;;;4.63;2.83;;;;;;;14.30;59.96;101746.47;4926258;29;20128;-47
2021/06/15 02:02:05;;;;;;;5.72;2.40;;;;;;;14.24;60.08;101742.31;4933493;29;20036;-45
2021/06/15 02:04:39;;;;;;;7.30;2.35;;;;;;;14.20;60.13;101738.56;4934994;29;20048;-46
2021/06/15 02:07:12;;;;;;;8.13;1.92;;;;;;;14.19;60.06;101734.19;4935334;29;20513;-45
2021/06/15 02:09:42;;;;;;;4.35;1.75;;;;;;;14.15;60.02;101733.22;4936229;29;20442;-46
2021/06/15 02:12:09;;;;;;;4.20;1.95;;;;;;;14.11;60.13;101726.72;4946012;29;20046;-45
2021/06/15 02:14:38;;;;;;;5.53;1.73;;;;;;;14.15;59.98;101710.94;4947649;29;20426;-46
2021/06/15 02:17:07;;;;;;;11.18;2.72;;;;;;;14.16;59.93;101712.59;4933976;29;20059;-46
2021/06/15 02:19:36;;;;;;;5.65;2.75;;;;;;;14.10;60.06;101702.81;4942332;29;20143;-49
2021/06/15 02:22:09;;;;;;;8.25;2.05;;;;;;;14.08;60.19;101705.97;4938442;29;20114;-46
2021/06/15 02:24:42;;;;;;;17.33;2.30;;;;;;;13.98;60.26;101717.53;4950537;29;20460;-53
2021/06/15 02:27:10;;;;;;;7.55;2.80;;;;;;;13.92;60.38;101716.94;4922079;29;20146;-46
2021/06/15 02:29:39;;;;;;;3.17;1.15;;;;;;;13.85;60.39;101713.91;4937543;29;20063;-44
2021/06/15 02:32:09;;;;;;;10.80;2.05;;;;;;;13.90;60.41;101713.69;4946212;29;20463;-45
2021/06/15 02:34:41;;;;;;;6.80;1.67;;;;;;;13.86;60.58;101703.59;4942508;29;20122;-45
2021/06/15 02:37:12;;;;;;;9.35;2.55;;;;;;;13.78;60.73;101705.31;4931839;29;20075;-45
2021/06/15 02:39:39;;;;;;;6.68;1.50;;;;;;;13.76;60.84;101699.28;4939507;29;20126;-45
2021/06/15 02:42:09;;;;;;;4.43;1.70;;;;;;;13.79;60.67;101690.22;4929608;29;20126;-45
2021/06/15 02:44:39;;;;;;;4.35;1.30;;;;;;;13.74;61.01;101684.09;4938639;29;20474;-45
2021/06/15 02:47:07;;;;;;;5.60;1.80;;;;;;;13.67;61.03;101690.19;4934658;29;20130;-46
2021/06/15 02:49:42;;;;;;;3.63;1.83;;;;;;;13.57;61.16;101682.28;4945510;29;20130;-44
2021/06/15 02:52:32;;;;;;;3.72;1.65;;;;;;;13.52;61.47;101688.06;4941111;29;20078;-45
2021/06/15 02:55:07;;;;;;;5.78;2.05;;;;;;;13.47;61.36;101674.38;4912122;29;20596;-45
2021/06/15 02:57:34;;;;;;;8.90;2.17;;;;;;;13.40;61.68;101679.66;4935243;29;20044;-47
2021/06/15 03:00:06;;;;;;;8.60;2.30;;;;;;;13.34;61.68;101679.03;4934220;29;20478;-47
2021/06/15 03:02:33;;;;;;;;;;;;;;;13.27;61.80;101687.13;4936267;29;20537;-47
2021/06/15 03:05:00;;;;;;;4.45;1.95;;;;;;;13.34;61.52;101681.81;4933562;29;19969;-45
2021/06/15 03:07:31;;;;;;;3.55;1.60;;;;;;;13.43;61.44;101678.97;4934430;29;20091;-45
2021/06/15 03:10:02;;;;;;;6.30;1.63;;;;;;;13.35;61.53;101685.44;4928063;29;20401;-47
2021/06/15 03:12:33;;;;;;;6.10;2.40;;;;;;;13.33;61.62;101677.44;4932520;29;20040;-44
2021/06/15 03:15:05;;;;;;;4.60;2.65;;;;;;;13.29;61.83;101670.91;4934660;29;20050;-44
2021/06/15 03:17:35;;;;;;;8.02;3.72;;;;;;;13.25;62.02;101677.50;4926872;29;20055;-44
2021/06/15 03:20:09;;;;;;;7.75;1.65;;;;;;;13.25;62.11;101671.94;4920104;29;20071;-44
2021/06/15 03:22:46;;;;;;;7.60;2.30;;;;;;;13.22;61.96;101679.00;4942405;29;20134;-45
2021/06/15 03:25:17;;;;;;;5.70;1.90;;;;;;;13.19;62.34;101674.13;4928413;29;20528;-44
2021/06/15 03:28:06;;;;;;;8.95;2.50;;;;;;;13.22;62.24;101675.41;4936287;29;20102;-46
2021/06/15 03:30:36;;;;;;;8.10;2.28;;;;;;;13.22;62.11;101673.44;4930728;29;20152;-46
2021/06/15 03:33:09;;;;;;;9.27;2.22;;;;;;;13.14;62.39;101667.94;4933519;29;20067;-44
2021/06/15 03:35:41;;;;;;;6.95;2.15;;;;;;;13.09;62.35;101659.81;4937582;29;20140;-45
2021/06/15 03:38:09;;;;;;;5.57;1.73;;;;;;;13.10;62.26;101653.13;4933671;29;20123;-45
2021/06/15 03:40:48;;;;;;;6.13;2.08;;;;;;;13.05;62.73;101653.28;4932507;29;20075;-44
2021/06/15 03:43:17;;;;;;;5.43;1.95;;;;;;;13.06;62.37;101654.91;4928607;29;20122;-44
2021/06/15 03:45:50;;;;;;;11.13;3.00;;;;;;;13.01;62.83;101666.22;4934675;29;20050;-44
2021/06/15 03:48:20;;;;;;;3.30;1.60;;;;;;;12.97;62.96;101660.56;4933266;29;20442;-46
2021/06/15 03:50:50;;;;;;;11.93;2.40;;;;;;;12.97;63.11;101655.00;4933208;29;20051;-44
2021/06/15 03:53:19;;;;;;;8.68;2.60;;;;;;;12.92;63.23;101663.50;4932286;29;20051;-47
2021/06/15 03:55:49;;;;;;;8.27;2.10;;;;;;;12.93;63.53;101653.22;4924492;29;20071;-47
2021/06/15 03:58:16;;;;;;;7.93;3.05;;;;;;;12.95;63.51;101645.34;4938077;29;20084;-46
2021/06/15 04:00:48;;;;;;;9.20;2.03;;;;;;;13.02;63.47;101649.22;4932916;29;20099;-45
2021/06/15 04:03:15;;;;;;;6.10;2.13;;;;;;;13.04;63.65;101649.69;4940980;29;20082;-46
2021/06/15 04:05:44;;;;;;;9.75;3.22;;;;;;;13.06;63.67;101646.56;4941848;29;20051;-45
2021/06/15 04:08:14;;;;;;;10.50;2.33;;;;;;;13.10;63.59;101661.47;4937463;29;20071;-46
2021/06/15 04:10:46;;;;;;;5.03;2.38;;;;;;;13.14;63.73;101667.94;4935188;29;20366;-48
2021/06/15 04:13:17;;;;;;;6.78;2.33;;;;;;;13.20;63.59;101666.59;4908817;29;20075;-44
2021/06/15 04:15:46;;;;;;;11.80;3.35;;;;;;;13.36;63.30;101643.38;4930609;29;20047;-45
2021/06/15 04:18:15;;;;;;;7.22;2.47;;;;;;;13.52;63.07;101651.91;4936232;29;20838;-46
2021/06/15 04:20:46;;;;;;;10.48;2.72;;;;;;;13.51;62.82;101641.91;4942645;28;20047;-46
2021/06/15 04:23:47;;;;;;;10.70;2.55;;;;;;;13.55;62.96;101648.44;4944870;29;20091;-50
2021/06/15 04:26:14;;;;;;;;;;;;;;;13.63;62.55;101633.63;4932694;29;20055;-45
2021/06/15 04:28:41;;;;;;;11.25;2.25;;;;;;;13.73;62.03;101619.25;4938088;29;19927;-45
2021/06/15 04:31:09;;;;;;;7.97;2.47;;;;;;;13.81;61.98;101623.09;4937248;29;20078;-44
2021/06/15 04:33:40;;;;;;;7.20;2.22;;;;;;;13.79;62.20;101639.31;4933982;29;20054;-45
2021/06/15 04:36:10;;;;;;;6.95;2.80;;;;;;;13.84;62.13;101626.00;4947390;29;20046;-47
2021/06/15 04:39:14;;;;;;;9.35;2.42;;;;;;;13.90;62.33;101632.94;4937263;29;20063;-47
2021/06/15 04:41:57;;;;;;;6.38;2.25;;;;;;;13.98;61.79;101634.00;4846894;29;20559;-45
2021/06/15 04:44:37;;;;;;;7.05;3.33;;;;;;;13.98;62.01;101634.81;4932744;29;20521;-45
2021/06/15 04:47:13;;;;;;;6.57;2.22;;;;;;;14.03;61.62;101623.44;4947910;29;20110;-47
2021/06/15 04:49:50;;;;;;;11.45;2.35;;;;;;;14.03;61.43;101623.44;4947011;29;20058;-48
2021/06/15 04:52:20;;;;;;;6.75;2.15;;;;;;;14.03;61.70;101625.44;4930961;29;20130;-46
2021/06/15 04:54:49;;;;;;;9.15;2.63;;;;;;;14.08;61.58;101627.19;4935090;29;20043;-45
2021/06/15 04:57:25;;;;;;;9.20;2.97;;;;;;;14.03;61.90;101615.09;4935424;29;20044;-46
2021/06/15 05:00:00;;;;;;;5.40;2.45;;;;;;;14.09;61.65;101614.84;4934967;29;20054;-44
2021/06/15 05:02:27;;;;;;;10.07;3.08;;;;;;;14.16;61.49;101612.31;4934522;29;20078;-45
2021/06/15 05:04:55;;;;;;;8.20;2.38;;;;;;;14.22;61.47;101614.50;4943117;29;20140;-46
2021/06/15 05:07:23;;;;;;;6.90;2.15;;;;;;;14.32;61.43;101613.28;4937966;29;20127;-44
2021/06/15 05:10:03;;;;;;;14.45;3.13;;;;;;;14.31;61.24;101622.75;4938198;29;20506;-44
2021/06/15 05:12:35;;;;;;;8.98;2.42;;;;;;;14.28;61.63;101618.69;4941689;29;20102;-45
2021/06/15 05:15:06;;;;;;;5.05;2.13;;;;;;;14.31;61.65;101608.81;4936150;29;20058;-45
2021/06/15 05:17:41;;;;;;;9.57;2.35;;;;;;;14.30;61.81;101607.19;4942960;29;20493;-47
2021/06/15 05:20:09;;;;;;;4.97;2.33;;;;;;;14.32;61.81;101613.28;4935580;29;20043;-46
2021/06/15 05:22:44;;;;;;;5.93;3.47;;;;;;;14.40;61.43;101612.34;4936158;29;20035;-47
2021/06/15 05:25:15;;;;;;;13.13;2.25;;;;;;;14.47;61.22;101609.78;4946827;29;20062;-47
2021/06/15 05:27:41;;;;;;;6.60;2.13;;;;;;;14.48;61.10;101614.19;4944892;29;20114;-48
2021/06/15 05:30:12;;;;;;;6.35;2.33;;;;;;;14.41;61.23;101609.19;4936018;29;20039;-45
2021/06/15 05:32:42;;;;;;;7.03;2.38;;;;;;;14.38;61.46;101618.25;4936299;29;20046;-48
2021/06/15 05:35:10;;;;;;;7.22;2.00;;;;;;;14.43;61.66;101620.78;4943197;29;20130;-46
2021/06/15 05:37:40;;;;;;;10.13;2.47;;;;;;;14.43;61.93;101614.41;4941038;29;20509;-46
2021/06/15 05:40:09;;;;;;;8.80;3.58;;;;;;;14.46;61.75;101622.06;4920842;29;20139;-45
2021/06/15 05:42:35;;;;;;;14.63;2.88;;;;;;;14.43;61.65;101612.44;4927988;29;20126;-45
2021/06/15 05:45:04;;;;;;;9.65;3.20;;;;;;;14.51;61.69;101613.47;4943355;29;20082;-46
2021/06/15 05:47:30;;;;;;;10.60;1.95;;;;;;;14.60;61.46;101619.75;4939314;29;20074;-46
2021/06/15 05:49:57;;;;;;;7.22;2.25;;;;;;;14.64;61.40;101620.66;4927846;29;20047;-48
2021/06/15 05:52:24;;;;;;;7.35;2.33;;;;;;;14.77;61.43;101608.34;4932710;29;20063;-44
2021/06/15 05:54:51;;;;;;;6.15;2.08;;;;;;;14.87;61.30;101599.47;4935239;29;20075;-48
2021/06/15 05:57:18;;;;;;;8.70;3.10;;;;;;;14.93;61.10;101606.41;4939258;29;20074;-46
2021/06/15 05:59:45;;;;;;;8.65;2.05;;;;;;;14.89;61.29;101601.88;4941150;29;20040;-46
2021/06/15 06:02:12;;;;;;;8.55;2.00;;;;;;;14.93;61.08;101602.81;4932485;29;20433;-48
2021/06/15 06:05:02;;;;;;;9.82;2.20;;;;;;;14.98;61.08;101611.75;4940552;29;20571;-50
2021/06/15 06:10:15;;;;;;;12.95;2.97;;;;;;;15.09;61.07;101606.47;4938687;29;20055;-46
2021/06/15 06:12:42;;;;;;;7.35;2.55;;;;;;;15.12;61.14;101601.00;4934629;29;20138;-46
2021/06/15 06:15:11;;;;;;;5.88;2.15;;;;;;;15.17;61.05;101586.78;4932612;29;20493;-47
2021/06/15 06:17:42;;;;;;;10.95;2.05;;;;;;;15.20;61.22;101586.06;4931185;29;20202;-45
2021/06/15 06:20:16;;;;;;;3.90;2.15;;;;;;;15.24;60.98;101578.63;4936799;29;20131;-47
2021/06/15 06:22:44;;;;;;;8.60;2.20;;;;;;;15.29;60.64;101576.72;4941265;29;20054;-47
2021/06/15 06:25:13;;;;;;;8.63;2.42;;;;;;;15.32;60.63;101595.56;4932803;29;20043;-46
2021/06/15 06:27:41;;;;;;;8.88;2.53;;;;;;;15.35;60.47;101578.09;4942988;29;20136;-47
2021/06/15 06:30:09;;;;;;;9.38;3.08;;;;;;;15.40;60.48;101583.41;4933012;29;20051;-49
2021/06/15 06:32:36;;;;;;;8.35;2.28;;;;;;;15.47;60.46;101589.22;4918939;29;20146;-46
2021/06/15 06:35:04;;;;;;;18.65;3.88;;;;;;;15.57;60.22;101588.69;4936022;29;20055;-44
2021/06/15 06:37:32;;;;;;;8.95;3.25;;;;;;;15.58;60.10;101587.53;4936896;29;20131;-49
2021/06/15 06:39:59;;;;;;;8.32;3.05;;;;;;;15.54;60.19;101583.84;4935939;29;20468;-45
2021/06/15 06:42:25;;;;;;;11.00;4.10;;;;;;;15.55;60.17;101577.06;4930876;29;20446;-49
2021/06/15 06:44:52;;;;;;;6.45;3.03;;;;;;;15.53;60.19;101574.66;4934937;29;20767;-51
2021/06/15 06:47:19;;;;;;;7.55;1.92;;;;;;;15.53;60.03;101573.84;4930677;29;20047;-51
2021/06/15 06:49:46;;;;;;;6.32;2.00;;;;;;;15.53;59.82;101577.44;4941196;29;20047;-50
2021/06/15 06:52:13;;;;;;;9.40;2.65;;;;;;;15.56;59.61;101575.91;4914445;29;20487;-49
2021/06/15 06:54:41;;;;;;;6.38;1.23;;;;;;;15.53;59.81;101579.41;4935754;29;20047;-48
2021/06/15 06:57:09;;;;;;;10.25;2.53;;;;;;;15.50;60.21;101571.75;4926164;29;20493;-49
2021/06/15 06:59:37;;;;;;;5.50;1.77;;;;;;;15.42;60.40;101575.50;4942353;29;20044;-48
2021/06/15 07:02:05;;;;;;;7.70;1.83;;;;;;;15.37;60.51;101570.19;4936458;29;20135;-50
2021/06/15 07:04:31;;;;;;;9.48;3.22;;;;;;;15.37;60.62;101568.22;4920229;29;20048;-53
2021/06/15 07:07:00;;;;;;;3.88;1.52;;;;;;;15.44;60.94;101571.19;4928720;29;20118;-44
2021/06/15 07:09:27;;;;;;;11.00;2.47;;;;;;;15.57;61.02;101571.94;4930739;29;20087;-47
2021/06/15 07:11:54;;;;;;;6.32;1.70;;;;;;;15.78;61.53;101561.31;4932436;29;20147;-46
2021/06/15 07:14:21;;;;;;;7.18;2.28;;;;;;;16.03;61.74;101561.94;4932479;29;20534;-47
2021/06/15 07:16:47;;;;;;;3.75;1.40;;;;;;;16.28;61.78;101569.72;4932010;29;20454;-46
2021/06/15 07:19:14;;;;;;;7.13;1.52;;;;;;;16.44;61.35;101566.94;4932661;29;20063;-49
2021/06/15 07:21:41;;;;;;;6.95;2.40;;;;;;;16.44;60.33;101573.31;4943626;29;20046;-49
2021/06/15 07:24:08;;;;;;;7.38;2.05;;;;;;;16.42;59.87;101569.25;4932387;29;20124;-47
2021/06/15 07:26:35;;;;;;;7.55;1.75;;;;;;;16.50;60.54;101573.00;4933070;29;20055;-48
2021/06/15 07:29:02;;;;;;;6.47;1.58;;;;;;;16.64;60.62;101562.19;4932204;29;20063;-45
2021/06/15 07:31:29;;;;;;;9.50;2.25;;;;;;;16.75;60.66;101560.44;4941004;29;20138;-50
2021/06/15 07:33:57;;;;;;;7.70;1.98;;;;;;;16.90;60.84;101551.97;4923124;29;20138;-46
2021/06/15 07:36:24;;;;;;;13.05;2.10;;;;;;;17.08;60.87;101557.13;4921902;29;20087;-47
2021/06/15 07:38:52;;;;;;;10.68;2.45;;;;;;;17.27;60.90;101565.47;4937404;29;20438;-50
2021/06/15 07:41:20;;;;;;;9.05;2.00;;;;;;;17.63;60.76;101568.59;4936316;29;20055;-51
2021/06/15 07:43:47;;;;;;;8.18;2.63;;;;;;;17.96;60.34;101564.34;4930618;29;20142;-48
2021/06/15 07:46:15;;;;;;;9.63;2.78;;;;;;;18.37;59.70;101566.22;4924420;29;20106;-46
2021/06/15 07:48:43;;;;;;;8.23;2.08;;;;;;;18.64;58.44;101556.59;4938936;29;20134;-51
2021/06/15 07:51:12;;;;;;;8.32;2.13;;;;;;;18.82;57.59;101546.41;4936323;29;20059;-49
2021/06/15 07:53:39;;;;;;;6.22;1.73;;;;;;;18.99;56.72;101555.41;4933839;28;20497;-49
2021/06/15 07:56:05;;;;;;;10.68;2.22;;;;;;;19.09;56.15;101549.16;4945072;29;20048;-50
2021/06/15 07:58:32;;;;;;;7.65;2.35;;;;;;;19.35;55.82;101540.63;4941464;29;20077;-48
2021/06/15 08:00:59;;;;;;;6.13;2.15;;;;;;;19.82;55.44;101532.25;4925537;29;20485;-47
2021/06/15 08:03:29;;;;;;;13.82;2.65;;;;;;;20.28;54.43;101526.19;4937984;29;20158;-48
2021/06/15 08:05:56;;;;;;;15.45;4.30;;;;;;;20.69;52.93;101530.41;4934459;29;20047;-54
2021/06/15 08:08:23;;;;;;;9.77;1.98;;;;;;;20.87;51.89;101528.47;4942546;29;20493;-50
2021/06/15 08:10:51;;;;;;;10.15;2.00;;;;;;;21.18;51.29;101510.13;4935550;29;20043;-49
2021/06/15 08:13:18;;;;;;;7.30;1.55;;;;;;;21.33;49.82;101514.56;4945546;29;20056;-50
2021/06/15 08:15:48;;;;;;;6.55;1.58;;;;;;;21.49;49.46;101511.38;4931649;29;20063;-50
2021/06/15 08:18:16;;;;;;;9.57;2.45;;;;;;;21.58;48.75;101498.47;4922586;29;20048;-47
2021/06/15 08:20:46;;;;;;;12.63;1.88;;;;;;;21.53;48.80;101496.06;4933476;29;20408;-51
2021/06/15 08:23:13;;;;;;;12.18;2.42;;;;;;;21.35;48.17;101505.69;4928657;29;20151;-48
2021/06/15 08:25:40;;;;;;;21.15;2.95;;;;;;;21.12;48.28;101487.19;4933597;29;20087;-52
2021/06/15 08:28:08;;;;;;;9.85;1.77;;;;;;;21.00;48.72;101501.56;4933535;29;20535;-50
2021/06/15 08:30:37;;;;;;;8.30;1.92;;;;;;;20.92;48.74;101491.50;4925414;29;20039;-49
2021/06/15 08:33:06;;;;;;;7.20;1.77;;;;;;;20.95;48.52;101487.88;4934857;29;20131;-48
2021/06/15 08:35:33;;;;;;;5.22;2.00;;;;;;;20.96;47.62;101489.50;4938610;29;20142;-45
2021/06/15 08:38:00;;;;;;;6.65;1.45;;;;;;;21.09;47.03;101489.97;4940174;29;20347;-48
2021/06/15 08:40:28;;;;;;;18.58;4.03;;;;;;;21.16;46.47;101487.16;4933975;29;20055;-51
2021/06/15 08:42:55;;;;;;;9.52;1.60;;;;;;;21.26;46.37;101485.59;4937363;29;20066;-48
2021/06/15 08:45:21;;;;;;;8.48;1.55;;;;;;;21.27;45.81;101485.19;4934365;29;20040;-48
2021/06/15 08:47:51;;;;;;;6.43;1.85;;;;;;;21.31;45.44;101468.28;4935670;29;20099;-46
2021/06/15 08:50:22;;;;;;;8.48;2.15;;;;;;;21.35;46.16;101466.25;4934605;29;20044;-52
2021/06/15 08:52:50;;;;;;;11.43;2.90;;;;;;;21.27;47.26;101459.00;4936939;29;20731;-46
2021/06/15 08:55:18;;;;;;;7.45;1.77;;;;;;;21.28;48.08;101463.44;4934521;29;20134;-53
2021/06/15 08:58:05;;;;;;;11.45;2.03;;;;;;;21.07;48.97;101467.06;4936470;29;20067;-50
2021/06/15 09:00:32;;;;;;;8.20;1.50;;;;;;;20.85;49.08;101457.72;4931749;29;20155;-50
2021/06/15 09:02:59;;;;;;;6.32;1.80;;;;;;;20.53;49.97;101445.53;4933983;29;20103;-51
2021/06/15 09:05:26;;;;;;;9.32;2.13;;;;;;;20.33;50.25;101447.06;4938125;29;20044;-49
2021/06/15 09:08:13;;;;;;;9.95;2.05;;;;;;;20.07;51.61;101447.31;4936742;29;20441;-48
2021/06/15 09:10:42;;;;;;;10.85;1.98;;;;;;;19.71;52.10;101438.63;4935441;29;20040;-50
2021/06/15 09:13:38;;;;;;;12.02;2.17;;;;;;;19.61;53.63;101432.94;4941467;29;20234;-48
2021/06/15 09:16:28;;;;;;;6.72;2.58;;;;;;;19.44;55.34;101432.41;4924597;29;20086;-46
2021/06/15 09:18:59;;;;;;;6.38;2.75;;;;;;;19.48;54.61;101432.44;4926625;29;20134;-48
2021/06/15 09:21:29;;;;;;;6.35;2.55;;;;;;;19.53;54.79;101429.28;4943568;29;20501;-54
2021/06/15 09:24:26;;;;;;;5.60;1.70;;;;;;;19.52;55.76;101418.41;4942192;29;20044;-47
2021/06/15 09:27:07;;;;;;;10.18;2.35;;;;;;;19.63;55.37;101420.09;4896188;29;20122;-46
2021/06/15 09:29:37;;;;;;;8.55;2.45;;;;;;;19.73;54.90;101413.75;4932998;29;20127;-50
2021/06/15 09:32:05;;;;;;;8.75;2.42;;;;;;;19.79;55.05;101415.00;4932507;29;20054;-48
2021/06/15 09:34:33;;;;;;;7.53;2.55;;;;;;;20.01;54.90;101408.28;4940638;29;20055;-48
2021/06/15 09:37:05;;;;;;;8.05;2.53;;;;;;;20.13;55.41;101411.97;4932006;29;20111;-48
2021/06/15 09:39:33;;;;;;;9.23;3.20;;;;;;;20.13;55.50;101411.97;4932698;29;20135;-49
2021/06/15 09:42:03;;;;;;;14.52;3.92;;;;;;;20.14;55.72;101419.22;4933146;29;20036;-47
2021/06/15 09:44:30;;;;;;;9.85;3.60;;;;;;;20.22;55.63;101407.63;4932797;29;20043;-46
2021/06/15 09:47:02;;;;;;;9.93;3.20;;;;;;;20.31;55.77;101396.00;4932756;29;20075;-46
2021/06/15 09:49:39;;;;;;;;;;;;;;;20.29;56.45;101404.03;4933101;29;20106;-50
2021/06/15 09:52:22;;;;;;;7.65;2.72;;;;;;;20.19;55.45;101391.53;4933183;29;19933;-49
2021/06/15 09:54:53;;;;;;;11.15;2.75;;;;;;;20.03;55.51;101394.69;4933318;29;20158;-47
2021/06/15 09:57:34;;;;;;;7.70;3.33;;;;;;;19.96;56.27;101397.44;4932042;29;20067;-52
2021/06/15 10:00:04;;;;;;;8.00;3.15;;;;;;;19.89;55.81;101385.34;4933322;29;20052;-46
2021/06/15 10:02:32;;;;;;;10.07;4.30;;;;;;;19.82;56.07;101390.94;4927970;29;20047;-48
2021/06/15 10:05:17;;;;;;;8.65;4.05;;;;;;;19.76;56.80;101386.88;4937599;29;20048;-48
2021/06/15 10:07:44;;;;;;;14.75;4.85;;;;;;;19.88;56.52;101378.91;4921320;29;20433;-50
2021/06/15 10:10:15;;;;;;;6.05;2.90;;;;;;;19.98;56.31;101378.19;4931983;29;20405;-48
2021/06/15 10:12:42;;;;;;;4.88;2.50;;;;;;;20.02;56.40;101362.13;4939574;29;20035;-50
2021/06/15 10:15:10;;;;;;;7.18;3.08;;;;;;;20.07;56.33;101368.59;4931293;29;20485;-47
2021/06/15 10:17:38;;;;;;;8.23;2.90;;;;;;;20.05;56.64;101363.34;4914358;29;20056;-49
2021/06/15 10:20:05;;;;;;;11.35;3.85;;;;;;;20.07;56.29;101365.78;4935744;29;20079;-55
2021/06/15 10:22:32;;;;;;;11.32;2.72;;;;;;;20.08;56.61;101353.31;4944585;29;20039;-47
2021/06/15 10:25:01;;;;;;;11.63;4.68;;;;;;;20.15;56.69;101344.94;4931838;29;20401;-52
2021/06/15 10:27:29;;;;;;;14.77;4.00;;;;;;;20.19;57.36;101354.16;4935007;29;20055;-46
2021/06/15 10:29:59;;;;;;;9.45;3.70;;;;;;;20.08;57.41;101351.31;4916004;29;20401;-48
2021/06/15 10:32:28;;;;;;;13.32;4.78;;;;;;;19.96;57.79;101346.84;4933023;29;20063;-47
2021/06/15 10:35:07;;;;;;;11.85;4.88;;;;;;;19.94;58.41;101335.19;4939091;29;20035;-45
2021/06/15 10:37:34;;;;;;;17.52;4.22;;;;;;;19.98;58.17;101341.66;4939403;29;20125;-50
2021/06/15 10:40:25;;;;;;;12.90;3.95;;;;;;;20.01;58.72;101335.22;4938633;29;20044;-46
2021/06/15 10:43:08;;;;;;;12.57;3.85;;;;;;;20.11;58.45;101332.84;4928669;28;20055;-50
2021/06/15 10:45:38;;;;;;;9.07;3.10;;;;;;;20.17;57.87;101322.84;4933046;29;20048;-50
2021/06/15 10:48:05;;;;;;;11.35;4.03;;;;;;;20.26;57.55;101326.91;4934171;29;20055;-48
2021/06/15 10:50:50;;;;;;;10.00;3.17;;;;;;;20.63;57.98;101318.16;4932647;29;20079;-46
2021/06/15 10:53:19;;;;;;;6.22;3.58;;;;;;;20.87;57.49;101311.75;4921979;29;20060;-51
2021/06/15 10:56:01;;;;;;;11.25;3.20;;;;;;;21.01;57.04;101308.13;4931133;29;20162;-47
2021/06/15 10:58:31;;;;;;;;;;;;;;;21.01;57.21;101302.50;4939857;29;20703;-49
2021/06/15 11:01:13;;;;;;;11.98;3.67;;;;;;;21.15;57.07;101296.91;4932763;29;19969;-45
2021/06/15 11:03:51;;;;;;;13.40;3.10;;;;;;;21.37;56.78;101300.47;4929268;29;20075;-52
2021/06/15 11:06:38;;;;;;;11.63;3.75;;;;;;;21.74;55.16;101286.69;4920083;29;20126;-48
2021/06/15 11:09:17;;;;;;;11.52;3.20;;;;;;;21.78;56.04;101285.47;4932906;29;20043;-49
2021/06/15 11:12:01;;;;;;;14.02;3.60;;;;;;;21.97;55.46;101275.75;4936865;29;20054;-53
2021/06/15 11:14:28;;;;;;;11.30;3.38;;;;;;;22.24;55.25;101276.81;4937557;29;20051;-48
2021/06/15 11:16:59;;;;;;;6.03;2.45;;;;;;;22.44;54.61;101266.63;4931183;29;20039;-48
2021/06/15 11:19:30;;;;;;;14.77;3.63;;;;;;;22.48;54.32;101269.38;4931226;29;20047;-47
2021/06/15 11:22:07;;;;;;;11.38;2.53;;;;;;;22.53;53.95;101268.94;4933024;29;20202;-50
2021/06/15 11:24:55;;;;;;;6.78;2.47;;;;;;;22.50;53.43;101257.72;4933624;29;20039;-47
2021/06/15 11:27:25;;;;;;;6.55;2.28;;;;;;;22.37;53.62;101254.59;4930839;29;20106;-46
2021/06/15 11:30:01;;;;;;;14.85;3.45;;;;;;;22.41;52.89;101256.16;4914676;29;20051;-46
2021/06/15 11:32:33;;;;;;;7.72;2.22;;;;;;;22.45;53.14;101242.81;4931520;29;20048;-50
2021/06/15 11:35:02;;;;;;;11.48;2.40;;;;;;;22.57;53.43;101244.34;4939808;29;20035;-47
2021/06/15 11:37:33;;;;;;;12.55;3.00;;;;;;;22.71;52.99;101249.09;4941293;29;20068;-48
2021/06/15 11:40:23;;;;;;;15.02;2.70;;;;;;;22.78;52.27;101249.03;4934639;29;20052;-46
2021/06/15 11:43:08;;;;;;;12.85;2.50;;;;;;;22.77;52.47;101236.16;4938713;29;20405;-47
2021/06/15 11:45:47;;;;;;;15.57;3.42;;;;;;;22.65;53.04;101231.00;4931367;29;20061;-48